createdAt,value
2019-05-29T00:00:21.260Z,9.20
2019-05-29T00:02:52.003Z,9.07
2019-05-29T00:05:22.515Z,9.63
2019-05-29T00:07:52.973Z,8.97
2019-05-29T00:10:23.663Z,10.30
2019-05-29T00:12:54.104Z,9.70
2019-05-29T00:15:24.740Z,8.87
2019-05-29T00:17:55.187Z,9.20
2019-05-29T00:20:25.677Z,9.10
2019-05-29T00:22:56.187Z,8.67
2019-05-29T00:25:26.636Z,9.30
2019-05-29T00:27:57.132Z,8.37
2019-05-29T00:30:27.628Z,9.00
2019-05-29T00:32:58.093Z,9.20
2019-05-29T00:35:28.555Z,9.13
2019-05-29T00:37:59.161Z,8.90
2019-05-29T00:40:29.604Z,9.10
2019-05-29T00:43:00.071Z,10.73
2019-05-29T00:45:30.571Z,10.53
2019-05-29T00:48:01.146Z,11.13
2019-05-29T00:50:31.606Z,9.93
2019-05-29T00:53:02.109Z,9.87
2019-05-29T00:55:32.586Z,9.53
2019-05-29T00:58:03.028Z,10.43
2019-05-29T01:00:33.537Z,10.43
2019-05-29T01:03:04.001Z,9.97
2019-05-29T01:05:34.474Z,10.77
2019-05-29T01:08:05.154Z,10.07
2019-05-29T01:10:35.628Z,9.87
2019-05-29T01:13:06.297Z,10.30
2019-05-29T01:15:36.766Z,10.33
2019-05-29T01:18:07.288Z,10.60
2019-05-29T01:20:37.744Z,10.40
2019-05-29T01:23:08.245Z,11.07
2019-05-29T01:25:38.704Z,11.23
2019-05-29T01:28:09.232Z,11.07
2019-05-29T01:30:39.701Z,11.63
2019-05-29T01:33:10.278Z,11.23
2019-05-29T01:35:40.755Z,10.60
2019-05-29T01:38:11.254Z,10.77
2019-05-29T01:40:41.717Z,11.27
2019-05-29T01:43:12.221Z,10.60
2019-05-29T01:45:42.678Z,10.23
2019-05-29T01:48:13.216Z,10.20
2019-05-29T01:50:43.937Z,10.50
2019-05-29T01:53:15.550Z,10.60
2019-05-29T01:55:46.145Z,11.53
2019-05-29T01:58:17.964Z,10.90
2019-05-29T02:00:49.227Z,11.10
2019-05-29T02:03:19.909Z,11.00
2019-05-29T02:05:50.371Z,12.13
2019-05-29T02:08:22.041Z,10.67
2019-05-29T02:10:52.597Z,13.30
2019-05-29T02:13:23.554Z,13.47
2019-05-29T02:15:54.085Z,11.53
2019-05-29T02:18:25.129Z,11.93
2019-05-29T02:20:55.580Z,12.20
2019-05-29T02:23:26.074Z,11.13
2019-05-29T02:25:56.575Z,10.87
2019-05-29T02:28:27.041Z,13.33
2019-05-29T02:30:57.554Z,12.60
2019-05-29T02:33:28.342Z,14.07
2019-05-29T02:35:58.905Z,14.07
2019-05-29T02:38:29.366Z,13.07
2019-05-29T02:40:59.978Z,13.03
2019-05-29T02:43:30.442Z,13.37
2019-05-29T02:46:00.963Z,13.50
2019-05-29T02:48:31.862Z,12.67
2019-05-29T02:51:02.462Z,13.30
2019-05-29T02:53:33.006Z,12.53
2019-05-29T02:56:03.517Z,12.63
2019-05-29T02:58:34.096Z,13.03
2019-05-29T03:01:04.708Z,12.93
2019-05-29T03:03:39.830Z,13.03
2019-05-29T03:06:08.366Z,13.97
2019-05-29T03:08:39.079Z,14.80
2019-05-29T03:11:09.674Z,16.33
2019-05-29T03:13:40.461Z,13.53
2019-05-29T03:16:12.630Z,13.87
2019-05-29T03:18:43.159Z,14.00
2019-05-29T03:21:13.678Z,17.00
2019-05-29T03:23:44.194Z,14.17
2019-05-29T03:26:14.710Z,14.00
2019-05-29T03:28:45.207Z,16.00
2019-05-29T03:31:15.667Z,12.40
2019-05-29T03:33:49.985Z,11.43
2019-05-29T03:36:18.359Z,12.83
2019-05-29T03:38:48.864Z,13.00
2019-05-29T03:41:19.325Z,15.27
2019-05-29T03:43:49.800Z,12.33
2019-05-29T03:46:31.890Z,11.90
2019-05-29T03:48:52.546Z,12.23
2019-05-29T03:51:23.027Z,12.90
2019-05-29T03:53:53.487Z,12.07
2019-05-29T03:56:24.313Z,11.37
2019-05-29T03:58:54.839Z,11.77
2019-05-29T04:01:26.755Z,14.23
2019-05-29T04:03:57.361Z,13.37
2019-05-29T04:06:29.073Z,13.23
2019-05-29T04:08:59.685Z,12.17
2019-05-29T04:11:31.448Z,11.60
2019-05-29T04:14:01.986Z,12.03
2019-05-29T04:16:52.690Z,11.33
2019-05-29T04:19:06.255Z,12.20
2019-05-29T04:21:39.582Z,10.67
2019-05-29T04:24:10.144Z,10.67
2019-05-29T04:26:41.822Z,10.43
2019-05-29T04:29:12.874Z,12.53
2019-05-29T04:31:43.356Z,11.73
2019-05-29T04:34:13.798Z,11.07
2019-05-29T04:36:44.322Z,11.33
2019-05-29T04:39:14.913Z,12.33
2019-05-29T04:41:45.445Z,11.33
2019-05-29T04:44:15.902Z,11.47
2019-05-29T04:46:46.410Z,10.17
2019-05-29T04:49:20.155Z,9.23
2019-05-29T04:51:49.092Z,9.80
2019-05-29T04:54:19.564Z,10.10
2019-05-29T04:56:50.066Z,9.90
2019-05-29T04:59:20.539Z,11.00
2019-05-29T05:01:51.077Z,10.03
2019-05-29T05:04:21.542Z,11.90
2019-05-29T05:06:52.013Z,9.10
2019-05-29T05:09:22.480Z,8.13
2019-05-29T05:11:53.451Z,10.20
2019-05-29T05:14:24.172Z,8.93
2019-05-29T05:16:55.641Z,9.10
2019-05-29T05:19:26.170Z,8.40
2019-05-29T05:21:56.690Z,8.70
2019-05-29T05:24:27.202Z,8.17
2019-05-29T05:26:57.667Z,7.77
2019-05-29T05:29:28.170Z,8.13
2019-05-29T05:31:58.698Z,8.77
2019-05-29T05:34:30.464Z,8.63
2019-05-29T05:37:01.747Z,8.07
2019-05-29T05:39:32.782Z,8.27
2019-05-29T05:42:03.337Z,8.30
2019-05-29T05:44:34.936Z,7.43
2019-05-29T05:47:05.531Z,7.33
2019-05-29T05:49:37.301Z,8.40
2019-05-29T05:52:07.853Z,13.77
2019-05-29T05:54:39.499Z,8.83
2019-05-29T05:57:10.029Z,10.20
2019-05-29T05:59:41.950Z,7.57
2019-05-29T06:02:12.567Z,8.57
2019-05-29T06:04:43.220Z,21.10
2019-05-29T06:07:13.839Z,7.33
2019-05-29T06:09:44.442Z,7.50
2019-05-29T06:12:14.947Z,6.73
2019-05-29T06:14:45.482Z,7.13
2019-05-29T06:17:15.944Z,9.60
2019-05-29T06:19:46.481Z,7.13
2019-05-29T06:22:16.940Z,7.20
2019-05-29T06:24:47.461Z,7.47
2019-05-29T06:27:18.023Z,7.47
2019-05-29T06:29:48.601Z,7.60
2019-05-29T06:32:19.080Z,7.50
2019-05-29T06:34:49.647Z,8.03
2019-05-29T06:37:20.160Z,7.40
2019-05-29T06:39:50.771Z,7.30
2019-05-29T06:42:24.572Z,7.43
2019-05-29T06:44:55.106Z,7.70
2019-05-29T06:47:25.681Z,9.07
2019-05-29T06:49:56.175Z,17.00
2019-05-29T06:52:26.646Z,9.60
2019-05-29T06:54:57.193Z,7.13
2019-05-29T06:57:27.657Z,7.10
2019-05-29T06:59:58.147Z,7.20
2019-05-29T07:02:31.767Z,7.90
2019-05-29T07:05:00.878Z,14.83
2019-05-29T07:07:31.414Z,7.70
2019-05-29T07:10:01.884Z,7.20
2019-05-29T07:12:32.361Z,10.27
2019-05-29T07:15:02.871Z,9.43
2019-05-29T07:17:33.351Z,7.93
2019-05-29T07:20:04.315Z,8.10
2019-05-29T07:22:34.993Z,7.37
2019-05-29T07:25:05.696Z,7.03
2019-05-29T07:27:36.835Z,9.17
2019-05-29T07:30:08.002Z,7.17
2019-05-29T07:32:40.526Z,6.63
2019-05-29T07:35:11.290Z,9.60
2019-05-29T07:37:42.107Z,7.73
2019-05-29T07:40:12.997Z,7.97
2019-05-29T07:42:49.739Z,7.20
2019-05-29T07:45:17.024Z,10.50
2019-05-29T07:47:48.566Z,7.10
2019-05-29T07:50:19.403Z,7.30
2019-05-29T07:52:50.098Z,6.77
2019-05-29T07:55:23.539Z,7.00
2019-05-29T07:57:52.852Z,6.83
2019-05-29T08:00:34.748Z,6.60
2019-05-29T08:02:55.504Z,11.83
2019-05-29T08:05:25.979Z,6.47
2019-05-29T08:07:56.528Z,6.47
2019-05-29T08:10:27.222Z,6.57
2019-05-29T08:12:57.685Z,6.37
2019-05-29T08:15:28.303Z,8.03
2019-05-29T08:17:58.777Z,7.27
2019-05-29T08:20:29.374Z,9.13
2019-05-29T08:22:59.833Z,6.50
2019-05-29T08:25:30.355Z,6.63
2019-05-29T08:28:00.877Z,6.53
2019-05-29T08:30:31.348Z,6.50
2019-05-29T08:33:02.118Z,6.77
2019-05-29T08:35:32.608Z,6.80
2019-05-29T08:38:03.103Z,6.40
2019-05-29T08:40:33.728Z,6.07
2019-05-29T08:43:04.352Z,7.90
2019-05-29T08:45:34.826Z,6.13
2019-05-29T08:48:05.536Z,7.00
2019-05-29T08:50:35.993Z,6.40
2019-05-29T08:53:06.711Z,6.80
2019-05-29T08:55:37.186Z,6.20
2019-05-29T08:58:07.645Z,6.30
2019-05-29T09:00:38.364Z,7.00
2019-05-29T09:03:08.872Z,5.93
2019-05-29T09:05:39.421Z,6.10
2019-05-29T09:08:09.951Z,6.03
2019-05-29T09:10:40.431Z,5.90
2019-05-29T09:13:11.027Z,6.47
2019-05-29T09:15:41.476Z,5.60
2019-05-29T09:18:12.965Z,6.60
2019-05-29T09:21:01.858Z,6.53
2019-05-29T09:23:16.875Z,6.10
2019-05-29T09:25:47.509Z,8.60
2019-05-29T09:28:18.491Z,8.30
2019-05-29T09:30:49.434Z,6.20
2019-05-29T09:33:21.878Z,5.87
2019-05-29T09:35:52.484Z,6.37
2019-05-29T09:38:23.120Z,6.37
2019-05-29T09:40:53.608Z,6.40
2019-05-29T09:43:30.073Z,5.67
2019-05-29T09:45:56.901Z,5.83
2019-05-29T09:48:28.865Z,6.30
2019-05-29T09:50:59.394Z,6.10
2019-05-29T09:53:29.853Z,6.10
2019-05-29T09:56:00.897Z,6.17
2019-05-29T09:58:31.531Z,10.43
2019-05-29T10:01:18.442Z,7.20
2019-05-29T10:03:34.575Z,7.87
2019-05-29T10:06:09.052Z,6.07
2019-05-29T10:08:37.633Z,6.33
2019-05-29T10:11:10.673Z,6.10
2019-05-29T10:13:40.425Z,6.10
2019-05-29T10:16:10.942Z,9.27
2019-05-29T10:18:41.555Z,5.97
2019-05-29T10:21:12.117Z,8.10
2019-05-29T10:23:42.588Z,6.40
2019-05-29T10:26:13.632Z,6.93
2019-05-29T10:31:17.019Z,6.53
2019-05-29T10:33:48.272Z,6.57
2019-05-29T10:34:38.787Z,6.43
2019-05-29T10:36:18.956Z,6.43
2019-05-29T10:38:50.638Z,15.63
2019-05-29T10:41:21.369Z,6.97
2019-05-29T10:43:53.272Z,7.03
2019-05-29T10:46:23.840Z,6.13
2019-05-29T10:48:56.578Z,6.73
2019-05-29T10:51:26.869Z,7.33
2019-05-29T10:53:58.682Z,6.70
2019-05-29T10:56:29.726Z,7.10
2019-05-29T10:59:00.426Z,6.60
2019-05-29T11:01:30.886Z,6.60
2019-05-29T11:04:01.423Z,6.80
2019-05-29T11:06:31.867Z,6.27
2019-05-29T11:09:02.376Z,7.27
2019-05-29T11:11:32.842Z,6.33
2019-05-29T11:14:03.409Z,7.17
2019-05-29T11:16:33.879Z,6.83
2019-05-29T11:19:04.592Z,6.17
2019-05-29T11:21:35.159Z,5.80
2019-05-29T11:24:05.764Z,6.97
2019-05-29T11:26:36.223Z,10.20
2019-05-29T11:29:07.092Z,6.27
2019-05-29T11:31:37.566Z,6.23
2019-05-29T11:34:08.014Z,6.00
2019-05-29T11:36:38.577Z,5.77
2019-05-29T11:39:11.497Z,5.93
2019-05-29T11:41:42.004Z,5.63
2019-05-29T11:44:12.472Z,5.47
2019-05-29T11:46:43.103Z,8.37
2019-05-29T11:49:13.593Z,5.90
2019-05-29T11:51:44.538Z,5.77
2019-05-29T11:54:15.148Z,5.57
2019-05-29T11:56:45.606Z,7.00
2019-05-29T11:59:16.187Z,5.77
2019-05-29T12:01:50.271Z,6.07
2019-05-29T12:04:26.292Z,5.53
2019-05-29T12:06:51.250Z,5.37
2019-05-29T12:09:31.930Z,5.07
2019-05-29T12:11:54.194Z,4.50
2019-05-29T12:14:26.222Z,4.30
2019-05-29T12:16:58.070Z,5.07
2019-05-29T12:19:28.914Z,5.47
2019-05-29T12:22:00.561Z,5.10
2019-05-29T12:24:31.222Z,4.90
2019-05-29T12:27:02.746Z,5.00
2019-05-29T12:29:33.329Z,6.13
2019-05-29T12:32:08.960Z,4.80
2019-05-29T12:34:36.067Z,5.33
2019-05-29T12:37:06.582Z,4.73
2019-05-29T12:39:37.025Z,4.37
2019-05-29T12:42:07.634Z,4.67
2019-05-29T12:44:38.215Z,4.40
2019-05-29T12:47:08.733Z,4.93
2019-05-29T12:49:39.376Z,6.60
2019-05-29T12:52:11.733Z,5.07
2019-05-29T12:54:42.287Z,6.03
2019-05-29T12:57:12.807Z,7.20
2019-05-29T12:59:44.174Z,5.60
2019-05-29T13:02:15.754Z,10.13
2019-05-29T13:05:06.867Z,5.93
2019-05-29T13:07:18.456Z,4.53
2019-05-29T13:09:48.938Z,3.93
2019-05-29T13:12:19.404Z,4.63
2019-05-29T13:14:49.904Z,6.40
2019-05-29T13:17:20.361Z,6.37
2019-05-29T13:19:50.919Z,5.57
2019-05-29T13:22:21.675Z,4.57
2019-05-29T13:24:52.915Z,4.58
2019-05-29T13:27:23.481Z,5.45
2019-05-29T13:29:57.149Z,4.30
2019-05-29T13:32:28.191Z,9.60
2019-05-29T13:35:00.419Z,5.00
2019-05-29T13:37:30.930Z,5.17
2019-05-29T13:40:05.008Z,7.00
2019-05-29T13:42:33.603Z,7.20
2019-05-29T13:45:13.595Z,7.33
2019-05-29T13:47:36.716Z,4.47
2019-05-29T13:50:11.987Z,5.07
2019-05-29T13:52:41.690Z,4.27
2019-05-29T13:55:13.875Z,5.30
2019-05-29T13:57:44.480Z,4.53
2019-05-29T14:00:32.342Z,5.17
2019-05-29T14:02:49.123Z,5.57
2019-05-29T14:05:19.863Z,6.57
2019-05-29T14:07:50.422Z,4.33
2019-05-29T14:10:21.201Z,4.30
2019-05-29T14:12:51.817Z,4.53
2019-05-29T14:15:22.573Z,7.13
2019-05-29T14:17:53.145Z,7.77
2019-05-29T14:20:24.125Z,4.23
2019-05-29T14:22:54.610Z,4.57
2019-05-29T14:25:25.100Z,4.70
2019-05-29T14:27:55.594Z,5.63
2019-05-29T14:30:26.660Z,5.43
2019-05-29T14:32:57.257Z,4.50
2019-05-29T14:35:27.778Z,5.23
2019-05-29T14:37:58.306Z,4.60
2019-05-29T14:40:28.759Z,5.57
2019-05-29T14:42:59.390Z,5.00
2019-05-29T14:45:29.953Z,5.07
2019-05-29T14:48:02.046Z,5.40
2019-05-29T14:50:32.636Z,4.23
2019-05-29T14:53:04.903Z,4.87
2019-05-29T14:55:35.585Z,4.33
2019-05-29T14:58:06.249Z,4.80
2019-05-29T15:00:36.728Z,5.90
2019-05-29T15:03:07.489Z,4.87
2019-05-29T15:05:37.953Z,4.43
2019-05-29T15:08:09.896Z,5.13
2019-05-29T15:10:40.537Z,5.67
2019-05-29T15:13:13.082Z,4.83
2019-05-29T15:15:43.295Z,4.80
2019-05-29T15:18:18.312Z,4.53
2019-05-29T15:20:46.021Z,4.67
2019-05-29T15:23:16.503Z,5.90
2019-05-29T15:25:46.948Z,5.00
2019-05-29T15:28:18.044Z,5.30
2019-05-29T15:30:48.699Z,4.77
2019-05-29T15:33:19.211Z,6.33
2019-05-29T15:35:49.675Z,5.00
2019-05-29T15:38:20.263Z,6.20
2019-05-29T15:40:50.711Z,5.90
2019-05-29T15:43:21.211Z,5.73
2019-05-29T15:45:51.659Z,4.40
2019-05-29T15:48:22.156Z,4.93
2019-05-29T15:50:52.647Z,5.17
2019-05-29T15:53:23.159Z,6.47
2019-05-29T15:55:53.599Z,4.70
2019-05-29T15:58:24.129Z,5.87
2019-05-29T16:00:54.599Z,4.60
2019-05-29T16:03:25.096Z,4.40
2019-05-29T16:05:55.560Z,6.77
2019-05-29T16:08:26.015Z,4.33
2019-05-29T16:10:56.513Z,4.90
2019-05-29T16:13:27.045Z,4.97
2019-05-29T16:15:57.509Z,9.23
2019-05-29T16:18:29.649Z,6.83
2019-05-29T16:21:00.245Z,6.17
2019-05-29T16:23:35.853Z,5.33
2019-05-29T16:26:02.906Z,6.97
2019-05-29T16:28:33.369Z,4.90
2019-05-29T16:31:03.831Z,5.27
2019-05-29T16:33:34.376Z,5.63
2019-05-29T16:36:04.869Z,5.20
2019-05-29T16:38:35.319Z,4.80
2019-05-29T16:41:05.913Z,5.10
2019-05-29T16:43:36.369Z,5.57
2019-05-29T16:46:06.862Z,4.20
2019-05-29T16:48:37.352Z,4.37
2019-05-29T16:51:07.826Z,5.70
2019-05-29T16:53:38.341Z,4.53
2019-05-29T16:56:08.784Z,4.53
2019-05-29T16:58:39.295Z,4.87
2019-05-29T17:01:09.752Z,5.03
2019-05-29T17:03:40.212Z,4.67
2019-05-29T17:06:10.716Z,4.03
2019-05-29T17:08:41.164Z,4.70
2019-05-29T17:11:11.787Z,6.43
2019-05-29T17:13:42.290Z,4.80
2019-05-29T17:16:12.753Z,4.80
2019-05-29T17:18:44.774Z,5.33
2019-05-29T17:21:16.421Z,6.00
2019-05-29T17:23:46.962Z,5.80
2019-05-29T17:26:18.609Z,5.90
2019-05-29T17:28:49.182Z,6.00
2019-05-29T17:31:20.832Z,4.33
2019-05-29T17:33:51.355Z,4.93
2019-05-29T17:36:25.712Z,4.90
2019-05-29T17:38:54.062Z,8.87
2019-05-29T17:41:25.345Z,6.57
2019-05-29T17:43:55.835Z,6.37
2019-05-29T17:46:26.342Z,5.90
2019-05-29T17:48:56.809Z,5.80
2019-05-29T17:51:27.330Z,6.83
2019-05-29T17:53:57.784Z,9.27
2019-05-29T17:56:36.358Z,8.80
2019-05-29T17:59:00.556Z,8.27
2019-05-29T18:01:31.181Z,7.27
2019-05-29T18:04:01.680Z,7.33
2019-05-29T18:06:32.288Z,6.10
2019-05-29T18:09:02.891Z,6.10
2019-05-29T18:11:33.411Z,9.77
2019-05-29T18:14:07.410Z,11.00
2019-05-29T18:16:36.201Z,10.70
2019-05-29T18:19:06.789Z,9.33
2019-05-29T18:21:37.290Z,8.13
2019-05-29T18:24:07.747Z,7.07
2019-05-29T18:26:46.772Z,6.57
2019-05-29T18:29:10.405Z,7.27
2019-05-29T18:31:40.904Z,7.10
2019-05-29T18:34:11.416Z,6.97
2019-05-29T18:36:41.873Z,8.27
2019-05-29T18:39:12.356Z,7.33
2019-05-29T18:41:42.807Z,7.80
2019-05-29T18:44:13.361Z,7.77
2019-05-29T18:46:43.821Z,9.03
2019-05-29T18:49:14.989Z,6.87
2019-05-29T18:51:45.559Z,8.17
2019-05-29T18:54:16.068Z,7.20
2019-05-29T18:57:13.261Z,8.00
2019-05-29T18:59:18.789Z,7.00
2019-05-29T19:01:49.240Z,8.17
2019-05-29T19:04:19.741Z,8.17
2019-05-29T19:06:50.217Z,7.70
2019-05-29T19:09:21.670Z,7.33
2019-05-29T19:11:52.194Z,7.37
2019-05-29T19:14:24.054Z,12.27
2019-05-29T19:16:54.593Z,8.87
2019-05-29T19:19:26.193Z,9.03
2019-05-29T19:21:56.761Z,9.97
2019-05-29T19:24:28.510Z,7.83
2019-05-29T19:26:59.059Z,7.63
2019-05-29T19:29:30.838Z,8.80
2019-05-29T19:32:01.757Z,7.00
2019-05-29T19:34:33.519Z,8.60
2019-05-29T19:37:04.392Z,7.80
2019-05-29T19:39:34.945Z,8.00
2019-05-29T19:42:05.457Z,7.73
2019-05-29T19:44:35.960Z,8.63
2019-05-29T19:47:06.480Z,8.17
2019-05-29T19:49:36.973Z,7.57
2019-05-29T19:52:07.516Z,7.67
2019-05-29T19:54:37.971Z,7.97
2019-05-29T19:57:08.430Z,8.43
2019-05-29T19:59:38.929Z,7.10
2019-05-29T20:02:09.392Z,7.37
2019-05-29T20:04:39.919Z,7.77
2019-05-29T20:07:10.344Z,7.40
2019-05-29T20:09:40.840Z,8.20
2019-05-29T20:12:11.395Z,7.73
2019-05-29T20:14:41.917Z,7.97
2019-05-29T20:17:12.371Z,7.50
2019-05-29T20:19:42.966Z,7.97
2019-05-29T20:22:13.516Z,7.80
2019-05-29T20:24:44.058Z,8.17
2019-05-29T20:27:14.611Z,8.20
2019-05-29T20:29:45.123Z,8.30
2019-05-29T20:32:15.630Z,8.13
2019-05-29T20:34:46.097Z,8.37
2019-05-29T20:37:16.697Z,10.47
2019-05-29T20:39:47.158Z,8.50
2019-05-29T20:42:17.701Z,8.77
2019-05-29T20:44:48.183Z,8.87
2019-05-29T20:47:18.643Z,8.30
2019-05-29T20:49:49.165Z,8.50
2019-05-29T20:52:19.607Z,8.43
2019-05-29T20:54:50.171Z,8.40
2019-05-29T20:57:20.691Z,8.13
2019-05-29T20:59:51.196Z,8.53
2019-05-29T21:02:21.700Z,9.03
2019-05-29T21:04:52.177Z,7.80
2019-05-29T21:07:22.669Z,8.27
2019-05-29T21:09:53.131Z,8.50
2019-05-29T21:12:23.733Z,8.30
2019-05-29T21:14:54.184Z,8.47
2019-05-29T21:17:24.666Z,9.00
2019-05-29T21:19:55.136Z,11.93
2019-05-29T21:22:25.658Z,9.60
2019-05-29T21:25:04.673Z,9.30
2019-05-29T21:27:28.388Z,8.80
2019-05-29T21:29:58.853Z,8.83
2019-05-29T21:32:29.311Z,9.60
2019-05-29T21:34:59.824Z,8.70
2019-05-29T21:37:30.281Z,9.33
2019-05-29T21:40:00.778Z,8.60
2019-05-29T21:42:31.227Z,8.73
2019-05-29T21:45:01.753Z,8.63
2019-05-29T21:47:32.319Z,9.00
2019-05-29T21:50:02.805Z,7.90
2019-05-29T21:52:33.328Z,8.37
2019-05-29T21:55:03.968Z,9.03
2019-05-29T21:57:34.524Z,8.60
2019-05-29T22:00:07.725Z,8.23
2019-05-29T22:02:38.295Z,8.17
2019-05-29T22:05:09.078Z,8.57
2019-05-29T22:07:40.707Z,8.77
2019-05-29T22:10:11.598Z,8.43
2019-05-29T22:12:42.054Z,8.17
2019-05-29T22:15:12.751Z,8.23
2019-05-29T22:17:43.376Z,8.33
2019-05-29T22:20:14.727Z,8.20
2019-05-29T22:22:45.236Z,8.33
2019-05-29T22:25:16.101Z,8.10
2019-05-29T22:27:46.606Z,8.10
2019-05-29T22:30:17.460Z,7.90
2019-05-29T22:32:47.979Z,8.03
2019-05-29T22:35:18.622Z,9.00
2019-05-29T22:37:49.125Z,8.33
2019-05-29T22:40:19.924Z,8.33
2019-05-29T22:42:51.377Z,8.13
2019-05-29T22:45:21.858Z,8.57
2019-05-29T22:47:53.577Z,7.87
2019-05-29T22:50:24.240Z,8.60
2019-05-29T22:52:55.802Z,9.10
2019-05-29T22:55:26.339Z,7.90
2019-05-29T22:57:57.928Z,8.10
2019-05-29T23:00:28.498Z,8.03
2019-05-29T23:03:00.112Z,8.63
2019-05-29T23:05:30.732Z,8.77
2019-05-29T23:08:02.418Z,8.37
2019-05-29T23:10:33.060Z,8.53
2019-05-29T23:13:05.550Z,8.53
2019-05-29T23:15:35.757Z,9.00
2019-05-29T23:18:06.217Z,8.40
2019-05-29T23:20:36.713Z,7.80
2019-05-29T23:23:07.162Z,7.50
2019-05-29T23:25:37.649Z,8.07
2019-05-29T23:28:08.199Z,7.97
2019-05-29T23:30:38.708Z,7.83
2019-05-29T23:33:09.198Z,8.03
2019-05-29T23:35:39.651Z,7.73
2019-05-29T23:38:10.161Z,7.63
2019-05-29T23:40:40.612Z,7.57
2019-05-29T23:43:11.105Z,7.67
2019-05-29T23:45:41.564Z,7.23
2019-05-29T23:48:12.021Z,7.10
2019-05-29T23:50:42.616Z,7.67
2019-05-29T23:53:13.107Z,7.83
2019-05-29T23:55:43.592Z,7.10
2019-05-29T23:58:14.083Z,7.77
